sensor_id;sensor_type;location;lat;lon;timestamp;pressure;altitude;pressure_sealevel;temperature;humidity
18569;BME280;14780;48.316;-1.050;2023-04-01T00:02:10;98185.84;;;23.55;37.99
18569;BME280;14780;48.316;-1.050;2023-04-01T00:04:55;98188.06;;;23.53;37.88
18569;BME280;14780;48.316;-1.050;2023-04-01T00:07:40;98174.16;;;23.55;37.83
18569;BME280;14780;48.316;-1.050;2023-04-01T00:10:25;98182.06;;;23.56;37.95
18569;BME280;14780;48.316;-1.050;2023-04-01T00:13:10;98183.69;;;23.57;37.82
18569;BME280;14780;48.316;-1.050;2023-04-01T00:15:55;98182.06;;;23.56;37.81
18569;BME280;14780;48.316;-1.050;2023-04-01T00:18:40;98196.22;;;23.58;37.93
18569;BME280;14780;48.316;-1.050;2023-04-01T00:21:25;98205.53;;;23.57;37.87
18569;BME280;14780;48.316;-1.050;2023-04-01T00:24:10;98211.50;;;23.59;37.87
18569;BME280;14780;48.316;-1.050;2023-04-01T00:26:55;98210.38;;;23.60;37.88
18569;BME280;14780;48.316;-1.050;2023-04-01T00:29:44;98210.91;;;23.62;37.89
18569;BME280;14780;48.316;-1.050;2023-04-01T00:32:30;98204.13;;;23.60;37.90
18569;BME280;14780;48.316;-1.050;2023-04-01T00:35:16;98215.84;;;23.60;37.92
18569;BME280;14780;48.316;-1.050;2023-04-01T00:38:02;98211.50;;;23.59;37.96
18569;BME280;14780;48.316;-1.050;2023-04-01T00:40:47;98216.97;;;23.59;37.90
18569;BME280;14780;48.316;-1.050;2023-04-01T00:43:32;98219.09;;;23.62;37.89
18569;BME280;14780;48.316;-1.050;2023-04-01T00:46:17;98215.28;;;23.63;37.95
18569;BME280;14780;48.316;-1.050;2023-04-01T00:49:02;98213.63;;;23.62;37.82
18569;BME280;14780;48.316;-1.050;2023-04-01T00:51:50;98206.53;;;23.61;37.85
18569;BME280;14780;48.316;-1.050;2023-04-01T00:54:36;98206.53;;;23.61;37.84
18569;BME280;14780;48.316;-1.050;2023-04-01T00:57:34;98202.13;;;23.65;37.75
18569;BME280;14780;48.316;-1.050;2023-04-01T01:00:21;98209.00;;;23.63;37.82
18569;BME280;14780;48.316;-1.050;2023-04-01T01:03:06;98211.44;;;23.64;37.80
18569;BME280;14780;48.316;-1.050;2023-04-01T01:06:16;98205.44;;;23.62;37.88
18569;BME280;14780;48.316;-1.050;2023-04-01T01:33:11;98215.75;;;23.70;37.54
18569;BME280;14780;48.316;-1.050;2023-04-01T01:36:00;98216.06;;;23.64;37.77
18569;BME280;14780;48.316;-1.050;2023-04-01T01:38:48;98214.75;;;23.61;37.76
18569;BME280;14780;48.316;-1.050;2023-04-01T01:41:36;98213.63;;;23.62;37.77
18569;BME280;14780;48.316;-1.050;2023-04-01T01:44:24;98219.91;;;23.63;37.81
18569;BME280;14780;48.316;-1.050;2023-04-01T01:47:10;98221.81;;;23.62;37.74
18569;BME280;14780;48.316;-1.050;2023-04-01T01:49:56;98220.19;;;23.61;37.75
18569;BME280;14780;48.316;-1.050;2023-04-01T01:52:41;98231.66;;;23.63;37.74
18569;BME280;14780;48.316;-1.050;2023-04-01T02:01:01;98222.38;;;23.64;37.83
18569;BME280;14780;48.316;-1.050;2023-04-01T02:03:48;98224.78;;;23.66;37.66
18569;BME280;14780;48.316;-1.050;2023-04-01T02:06:38;98232.69;;;23.67;37.62
18569;BME280;14780;48.316;-1.050;2023-04-01T02:09:24;98230.25;;;23.66;37.82
18569;BME280;14780;48.316;-1.050;2023-04-01T02:12:12;98232.69;;;23.67;37.89
18569;BME280;14780;48.316;-1.050;2023-04-01T02:15:03;98246.34;;;23.67;37.70
18569;BME280;14780;48.316;-1.050;2023-04-01T02:17:50;98247.69;;;23.70;37.66
18569;BME280;14780;48.316;-1.050;2023-04-01T02:20:38;98241.41;;;23.69;37.67
18569;BME280;14780;48.316;-1.050;2023-04-01T02:23:23;98240.59;;;23.69;37.66
18569;BME280;14780;48.316;-1.050;2023-04-01T02:26:10;98236.25;;;23.68;37.68
18569;BME280;14780;48.316;-1.050;2023-04-01T02:28:57;98235.94;;;23.69;37.63
18569;BME280;14780;48.316;-1.050;2023-04-01T02:31:43;98236.75;;;23.70;37.71
18569;BME280;14780;48.316;-1.050;2023-04-01T02:34:29;98238.97;;;23.68;37.70
18569;BME280;14780;48.316;-1.050;2023-04-01T02:37:14;98237.38;;;23.67;37.63
18569;BME280;14780;48.316;-1.050;2023-04-01T02:40:02;98244.13;;;23.69;37.68
18569;BME280;14780;48.316;-1.050;2023-04-01T02:42:47;98237.59;;;23.70;37.68
18569;BME280;14780;48.316;-1.050;2023-04-01T02:45:31;98239.44;;;23.75;37.55
18569;BME280;14780;48.316;-1.050;2023-04-01T02:48:16;98227.69;;;23.74;37.60
18569;BME280;14780;48.316;-1.050;2023-04-01T02:51:01;98235.09;;;23.74;37.56
18569;BME280;14780;48.316;-1.050;2023-04-01T02:53:46;98243.28;;;23.74;37.52
18569;BME280;14780;48.316;-1.050;2023-04-01T02:56:31;98244.09;;;23.74;37.68
18569;BME280;14780;48.316;-1.050;2023-04-01T02:59:16;98241.34;;;23.74;37.57
18569;BME280;14780;48.316;-1.050;2023-04-01T03:02:01;98229.91;;;23.72;37.66
18569;BME280;14780;48.316;-1.050;2023-04-01T03:04:45;98233.66;;;23.76;37.48
18569;BME280;14780;48.316;-1.050;2023-04-01T03:07:30;98233.97;;;23.75;37.57
18569;BME280;14780;48.316;-1.050;2023-04-01T03:10:14;98239.97;;;23.77;37.41
18569;BME280;14780;48.316;-1.050;2023-04-01T03:13:00;98235.59;;;23.76;37.54
18569;BME280;14780;48.316;-1.050;2023-04-01T03:15:44;98239.97;;;23.77;37.57
18569;BME280;14780;48.316;-1.050;2023-04-01T03:18:29;98230.44;;;23.74;37.54
18569;BME280;14780;48.316;-1.050;2023-04-01T03:21:20;98244.09;;;23.74;37.58
18569;BME280;14780;48.316;-1.050;2023-04-01T03:24:05;98251.16;;;23.75;37.49
18569;BME280;14780;48.316;-1.050;2023-04-01T03:26:50;98253.63;;;23.77;37.74
18569;BME280;14780;48.316;-1.050;2023-04-01T03:29:35;98250.38;;;23.75;37.69
18569;BME280;14780;48.316;-1.050;2023-04-01T03:32:20;98244.59;;;23.76;37.61
18569;BME280;14780;48.316;-1.050;2023-04-01T03:35:05;98253.63;;;23.77;37.57
18569;BME280;14780;48.316;-1.050;2023-04-01T03:37:53;98257.47;;;23.76;37.61
18569;BME280;14780;48.316;-1.050;2023-04-01T03:40:42;98239.38;;;23.80;37.55
18569;BME280;14780;48.316;-1.050;2023-04-01T03:43:27;98245.38;;;23.82;37.58
18569;BME280;14780;48.316;-1.050;2023-04-01T03:46:16;98248.97;;;23.77;37.52
18569;BME280;14780;48.316;-1.050;2023-04-01T03:49:02;98252.50;;;23.78;37.50
18569;BME280;14780;48.316;-1.050;2023-04-01T03:51:47;98243.53;;;23.77;37.62
18569;BME280;14780;48.316;-1.050;2023-04-01T03:54:31;98244.31;;;23.78;37.54
18569;BME280;14780;48.316;-1.050;2023-04-01T03:57:16;98251.72;;;23.77;37.53
18569;BME280;14780;48.316;-1.050;2023-04-01T04:00:01;98247.88;;;23.78;37.52
18569;BME280;14780;48.316;-1.050;2023-04-01T04:02:46;98257.97;;;23.78;37.47
18569;BME280;14780;48.316;-1.050;2023-04-01T04:05:31;98258.25;;;23.76;37.60
18569;BME280;14780;48.316;-1.050;2023-04-01T04:08:16;98259.38;;;23.75;37.55
18569;BME280;14780;48.316;-1.050;2023-04-01T04:11:01;98258.25;;;23.76;37.52
18569;BME280;14780;48.316;-1.050;2023-04-01T04:13:45;98252.28;;;23.74;37.51
18569;BME280;14780;48.316;-1.050;2023-04-01T04:16:32;98254.44;;;23.77;37.49
18569;BME280;14780;48.316;-1.050;2023-04-01T04:19:18;98258.25;;;23.76;37.61
18569;BME280;14780;48.316;-1.050;2023-04-01T04:22:03;98254.44;;;23.77;37.53
18569;BME280;14780;48.316;-1.050;2023-04-01T04:24:48;98262.63;;;23.77;37.55
18569;BME280;14780;48.316;-1.050;2023-04-01T04:27:32;98263.94;;;23.80;37.42
18569;BME280;14780;48.316;-1.050;2023-04-01T04:30:18;98270.00;;;23.77;37.43
18569;BME280;14780;48.316;-1.050;2023-04-01T04:33:02;98270.00;;;23.77;37.56
18569;BME280;14780;48.316;-1.050;2023-04-01T04:35:47;98268.09;;;23.77;37.58
18569;BME280;14780;48.316;-1.050;2023-04-01T04:38:31;98275.19;;;23.78;37.47
18569;BME280;14780;48.316;-1.050;2023-04-01T04:41:18;98276.53;;;23.81;37.53
18569;BME280;14780;48.316;-1.050;2023-04-01T04:44:03;98283.91;;;23.80;37.51
18569;BME280;14780;48.316;-1.050;2023-04-01T04:46:49;98271.06;;;23.81;37.43
18569;BME280;14780;48.316;-1.050;2023-04-01T04:49:33;98271.06;;;23.81;37.46
18569;BME280;14780;48.316;-1.050;2023-04-01T04:52:18;98269.13;;;23.81;37.42
18569;BME280;14780;48.316;-1.050;2023-04-01T04:55:03;98270.25;;;23.80;37.42
18569;BME280;14780;48.316;-1.050;2023-04-01T04:57:48;98272.97;;;23.80;37.46
18569;BME280;14780;48.316;-1.050;2023-04-01T05:00:32;98264.78;;;23.80;37.39
18569;BME280;14780;48.316;-1.050;2023-04-01T05:03:17;98262.56;;;23.82;37.46
18569;BME280;14780;48.316;-1.050;2023-04-01T05:06:01;98269.94;;;23.82;37.32
18569;BME280;14780;48.316;-1.050;2023-04-01T05:08:47;98257.09;;;23.82;37.47
18569;BME280;14780;48.316;-1.050;2023-04-01T05:11:32;98264.19;;;23.83;37.35
18569;BME280;14780;48.316;-1.050;2023-04-01T05:14:17;98269.13;;;23.81;37.31
18569;BME280;14780;48.316;-1.050;2023-04-01T05:17:02;98271.88;;;23.81;37.35
18569;BME280;14780;48.316;-1.050;2023-04-01T05:19:47;98272.44;;;23.78;37.35
18569;BME280;14780;48.316;-1.050;2023-04-01T05:22:31;98277.31;;;23.81;37.32
18569;BME280;14780;48.316;-1.050;2023-04-01T05:25:16;98274.34;;;23.78;37.36
18569;BME280;14780;48.316;-1.050;2023-04-01T05:28:01;98269.41;;;23.80;37.45
18569;BME280;14780;48.316;-1.050;2023-04-01T05:30:46;98283.38;;;23.78;37.28
18569;BME280;14780;48.316;-1.050;2023-04-01T05:33:31;98272.44;;;23.78;37.32
18569;BME280;14780;48.316;-1.050;2023-04-01T05:36:16;98279.53;;;23.79;37.42
18569;BME280;14780;48.316;-1.050;2023-04-01T05:39:02;98283.06;;;23.80;37.27
18569;BME280;14780;48.316;-1.050;2023-04-01T05:41:47;98282.00;;;23.81;37.43
18569;BME280;14780;48.316;-1.050;2023-04-01T05:44:32;98287.22;;;23.77;37.32
18569;BME280;14780;48.316;-1.050;2023-04-01T05:47:17;98281.75;;;23.77;37.39
18569;BME280;14780;48.316;-1.050;2023-04-01T05:50:01;98288.00;;;23.78;37.28
18569;BME280;14780;48.316;-1.050;2023-04-01T05:52:46;98284.78;;;23.76;37.35
18569;BME280;14780;48.316;-1.050;2023-04-01T05:55:31;98292.13;;;23.75;37.20
18569;BME280;14780;48.316;-1.050;2023-04-01T05:58:15;98289.41;;;23.75;37.27
18569;BME280;14780;48.316;-1.050;2023-04-01T06:01:09;98291.03;;;23.76;37.40
18569;BME280;14780;48.316;-1.050;2023-04-01T06:03:54;98288.88;;;23.73;37.35
18569;BME280;14780;48.316;-1.050;2023-04-01T06:06:39;98290.78;;;23.73;37.31
18569;BME280;14780;48.316;-1.050;2023-04-01T06:09:29;98297.09;;;23.73;37.32
18569;BME280;14780;48.316;-1.050;2023-04-01T06:15:36;98281.81;;;23.72;37.31
18569;BME280;14780;48.316;-1.050;2023-04-01T06:24:53;98288.38;;;23.71;37.37
18569;BME280;14780;48.316;-1.050;2023-04-01T06:30:45;98301.72;;;23.73;37.31
18569;BME280;14780;48.316;-1.050;2023-04-01T06:45:51;98314.53;;;23.77;37.31
18569;BME280;14780;48.316;-1.050;2023-04-01T06:54:47;98307.41;;;23.76;37.38
18569;BME280;14780;48.316;-1.050;2023-04-01T06:57:41;98322.19;;;23.75;37.32
18569;BME280;14780;48.316;-1.050;2023-04-01T07:00:33;98322.41;;;23.79;37.34
18569;BME280;14780;48.316;-1.050;2023-04-01T07:03:43;98328.72;;;23.79;37.46
18569;BME280;14780;48.316;-1.050;2023-04-01T07:06:38;98326.53;;;23.76;37.49
18569;BME280;14780;48.316;-1.050;2023-04-01T07:09:38;98331.25;;;23.71;37.66
18569;BME280;14780;48.316;-1.050;2023-04-01T07:12:37;98333.19;;;23.70;37.64
18569;BME280;14780;48.316;-1.050;2023-04-01T07:15:36;98336.94;;;23.74;37.70
18569;BME280;14780;48.316;-1.050;2023-04-01T07:18:34;98334.72;;;23.76;37.62
18569;BME280;14780;48.316;-1.050;2023-04-01T07:21:41;98328.72;;;23.79;37.71
18569;BME280;14780;48.316;-1.050;2023-04-01T07:24:42;98338.25;;;23.82;37.62
18569;BME280;14780;48.316;-1.050;2023-04-01T07:27:28;98330.84;;;23.82;37.51
18569;BME280;14780;48.316;-1.050;2023-04-01T07:30:16;98328.72;;;23.79;37.50
18569;BME280;14780;48.316;-1.050;2023-04-01T07:33:05;98335.78;;;23.80;37.51
18569;BME280;14780;48.316;-1.050;2023-04-01T07:53:46;98314.78;;;23.81;37.73
18569;BME280;14780;48.316;-1.050;2023-04-01T07:56:45;98317.72;;;23.84;37.84
18569;BME280;14780;48.316;-1.050;2023-04-01T07:59:52;98323.38;;;23.93;37.89
18569;BME280;14780;48.316;-1.050;2023-04-01T08:09:38;98330.25;;;23.90;37.85
18569;BME280;14780;48.316;-1.050;2023-04-01T08:12:52;98335.69;;;23.90;37.60
18569;BME280;14780;48.316;-1.050;2023-04-01T08:16:28;98341.75;;;23.87;37.61
18569;BME280;14780;48.316;-1.050;2023-04-01T08:22:48;98343.25;;;23.75;37.79
18569;BME280;14780;48.316;-1.050;2023-04-01T08:25:39;98335.91;;;23.70;37.77
18569;BME280;14780;48.316;-1.050;2023-04-01T08:28:43;98332.34;;;23.70;37.76
18569;BME280;14780;48.316;-1.050;2023-04-01T08:31:51;98341.94;;;23.67;37.76
18569;BME280;14780;48.316;-1.050;2023-04-01T08:34:42;98334.88;;;23.61;37.73
18569;BME280;14780;48.316;-1.050;2023-04-01T08:37:34;98337.94;;;23.60;37.86
18569;BME280;14780;48.316;-1.050;2023-04-01T08:40:52;98349.94;;;23.59;37.89
18569;BME280;14780;48.316;-1.050;2023-04-01T08:47:02;98341.59;;;23.45;37.95
18569;BME280;14780;48.316;-1.050;2023-04-01T08:53:10;98332.94;;;23.38;38.16
18569;BME280;14780;48.316;-1.050;2023-04-01T08:56:18;98331.34;;;23.33;38.21
18569;BME280;14780;48.316;-1.050;2023-04-01T08:59:17;98328.94;;;23.31;38.15
18569;BME280;14780;48.316;-1.050;2023-04-01T09:06:10;98337.59;;;23.38;38.10
18569;BME280;14780;48.316;-1.050;2023-04-01T09:09:29;98325.84;;;23.38;38.08
18569;BME280;14780;48.316;-1.050;2023-04-01T09:27:05;98324.84;;;23.57;37.83
18569;BME280;14780;48.316;-1.050;2023-04-01T09:39:34;98330.28;;;23.57;37.73
18569;BME280;14780;48.316;-1.050;2023-04-01T09:45:23;98341.22;;;23.57;37.75
18569;BME280;14780;48.316;-1.050;2023-04-01T09:48:20;98338.22;;;23.58;37.85
18569;BME280;14780;48.316;-1.050;2023-04-01T09:51:31;98331.06;;;23.62;37.78
18569;BME280;14780;48.316;-1.050;2023-04-01T09:57:47;98353.22;;;23.61;37.73
18569;BME280;14780;48.316;-1.050;2023-04-01T10:31:57;98351.59;;;23.60;37.83
18569;BME280;14780;48.316;-1.050;2023-04-01T10:43:42;98351.81;;;23.63;37.74
18569;BME280;14780;48.316;-1.050;2023-04-01T10:56:02;98373.44;;;23.60;37.69
18569;BME280;14780;48.316;-1.050;2023-04-01T11:14:51;98363.22;;;23.70;38.36
18569;BME280;14780;48.316;-1.050;2023-04-01T11:36:00;98375.44;;;23.78;38.39
18569;BME280;14780;48.316;-1.050;2023-04-01T11:57:25;98362.88;;;23.77;38.20
18569;BME280;14780;48.316;-1.050;2023-04-01T12:06:48;98362.84;;;23.82;38.24
18569;BME280;14780;48.316;-1.050;2023-04-01T12:16:37;98375.66;;;23.86;38.19
18569;BME280;14780;48.316;-1.050;2023-04-01T12:19:33;98371.25;;;23.85;38.35
18569;BME280;14780;48.316;-1.050;2023-04-01T12:22:40;98377.50;;;23.91;38.32
18569;BME280;14780;48.316;-1.050;2023-04-01T12:50:09;98384.78;;;24.00;38.13
18569;BME280;14780;48.316;-1.050;2023-04-01T12:53:13;98390.81;;;23.97;38.12
18569;BME280;14780;48.316;-1.050;2023-04-01T13:12:28;98407.69;;;24.04;38.11
18569;BME280;14780;48.316;-1.050;2023-04-01T13:24:24;98410.50;;;23.99;38.42
18569;BME280;14780;48.316;-1.050;2023-04-01T13:30:33;98417.00;;;24.03;38.45
18569;BME280;14780;48.316;-1.050;2023-04-01T13:33:30;98412.63;;;24.02;38.47
18569;BME280;14780;48.316;-1.050;2023-04-01T13:42:21;98413.75;;;24.01;38.44
18569;BME280;14780;48.316;-1.050;2023-04-01T13:45:17;98415.38;;;24.02;38.41
18569;BME280;14780;48.316;-1.050;2023-04-01T13:48:41;98422.19;;;24.05;38.40
18569;BME280;14780;48.316;-1.050;2023-04-01T13:57:59;98423.75;;;24.11;39.14
18569;BME280;14780;48.316;-1.050;2023-04-01T14:00:56;98423.44;;;24.12;38.54
18569;BME280;14780;48.316;-1.050;2023-04-01T14:10:30;98423.56;;;24.02;38.47
18569;BME280;14780;48.316;-1.050;2023-04-01T14:13:43;98441.88;;;24.02;38.34
18569;BME280;14780;48.316;-1.050;2023-04-01T14:32:10;98441.63;;;23.98;38.30
18569;BME280;14780;48.316;-1.050;2023-04-01T15:12:16;98486.06;;;24.09;38.29
18569;BME280;14780;48.316;-1.050;2023-04-01T15:18:15;98492.31;;;24.14;38.06
18569;BME280;14780;48.316;-1.050;2023-04-01T15:21:19;98496.44;;;24.12;38.23
18569;BME280;14780;48.316;-1.050;2023-04-01T15:30:26;98511.00;;;24.02;38.16
18569;BME280;14780;48.316;-1.050;2023-04-01T15:46:11;98508.31;;;23.97;38.08
18569;BME280;14780;48.316;-1.050;2023-04-01T15:52:06;98522.56;;;23.94;38.04
18569;BME280;14780;48.316;-1.050;2023-04-01T16:01:15;98534.59;;;23.93;38.04
18569;BME280;14780;48.316;-1.050;2023-04-01T16:04:26;98537.34;;;23.93;38.14
18569;BME280;14780;48.316;-1.050;2023-04-01T16:08:37;98545.53;;;23.93;38.15
18569;BME280;14780;48.316;-1.050;2023-04-01T16:17:50;98553.72;;;23.93;38.02
18569;BME280;14780;48.316;-1.050;2023-04-01T16:23:49;98551.28;;;23.92;38.02
18569;BME280;14780;48.316;-1.050;2023-04-01T16:26:43;98556.47;;;23.88;37.96
18569;BME280;14780;48.316;-1.050;2023-04-01T16:29:50;98556.75;;;23.87;37.83
18569;BME280;14780;48.316;-1.050;2023-04-01T16:32:44;98561.66;;;23.85;37.99
18569;BME280;14780;48.316;-1.050;2023-04-01T16:35:58;98558.69;;;23.86;37.94
18569;BME280;14780;48.316;-1.050;2023-04-01T16:44:52;98576.72;;;23.82;37.88
18569;BME280;14780;48.316;-1.050;2023-04-01T16:51:02;98577.28;;;23.79;37.79
18569;BME280;14780;48.316;-1.050;2023-04-01T16:54:00;98580.56;;;23.76;37.79
18569;BME280;14780;48.316;-1.050;2023-04-01T16:56:55;98579.50;;;23.77;37.93
18569;BME280;14780;48.316;-1.050;2023-04-01T16:59:52;98582.50;;;23.76;37.92
18569;BME280;14780;48.316;-1.050;2023-04-01T17:02:51;98589.88;;;23.75;37.93
18569;BME280;14780;48.316;-1.050;2023-04-01T17:24:34;98611.78;;;23.70;37.86
18569;BME280;14780;48.316;-1.050;2023-04-01T17:27:40;98615.06;;;23.67;37.93
18569;BME280;14780;48.316;-1.050;2023-04-01T17:31:05;98616.16;;;23.66;37.97
18569;BME280;14780;48.316;-1.050;2023-04-01T17:37:33;98633.66;;;23.65;37.93
18569;BME280;14780;48.316;-1.050;2023-04-01T17:43:47;98637.75;;;23.63;38.02
18569;BME280;14780;48.316;-1.050;2023-04-01T17:49:33;98646.53;;;23.60;38.00
18569;BME280;14780;48.316;-1.050;2023-04-01T17:52:30;98650.88;;;23.61;38.05
18569;BME280;14780;48.316;-1.050;2023-04-01T18:17:41;98681.13;;;23.69;38.48
18569;BME280;14780;48.316;-1.050;2023-04-01T18:23:43;98698.03;;;23.81;39.40
18569;BME280;14780;48.316;-1.050;2023-04-01T18:26:32;98700.75;;;23.86;39.34
18569;BME280;14780;48.316;-1.050;2023-04-01T18:29:24;98709.19;;;23.85;39.17
18569;BME280;14780;48.316;-1.050;2023-04-01T18:35:19;98712.78;;;23.80;39.47
18569;BME280;14780;48.316;-1.050;2023-04-01T18:38:25;98717.75;;;23.68;39.55
18569;BME280;14780;48.316;-1.050;2023-04-01T18:45:17;98733.69;;;23.42;40.04
18569;BME280;14780;48.316;-1.050;2023-04-01T18:50:59;98728.78;;;23.43;39.97
18569;BME280;14780;48.316;-1.050;2023-04-01T18:54:00;98723.31;;;23.38;40.13
18569;BME280;14780;48.316;-1.050;2023-04-01T18:56:47;98732.63;;;23.33;40.45
18569;BME280;14780;48.316;-1.050;2023-04-01T18:59:46;98741.84;;;23.51;40.14
18569;BME280;14780;48.316;-1.050;2023-04-01T19:05:42;98745.69;;;23.50;40.13
18569;BME280;14780;48.316;-1.050;2023-04-01T19:08:32;98748.38;;;23.55;40.01
18569;BME280;14780;48.316;-1.050;2023-04-01T19:11:31;98763.69;;;23.51;40.12
18569;BME280;14780;48.316;-1.050;2023-04-01T19:21:13;98768.06;;;23.47;40.28
18569;BME280;14780;48.316;-1.050;2023-04-01T19:33:18;98779.03;;;23.33;40.41
18569;BME280;14780;48.316;-1.050;2023-04-01T19:45:41;98788.31;;;23.37;40.29
18569;BME280;14780;48.316;-1.050;2023-04-01T19:48:36;98792.94;;;23.36;40.30
18569;BME280;14780;48.316;-1.050;2023-04-01T19:52:12;98789.91;;;23.57;39.91
18569;BME280;14780;48.316;-1.050;2023-04-01T20:00:59;98803.59;;;23.33;40.23
18569;BME280;14780;48.316;-1.050;2023-04-01T20:04:01;98811.22;;;23.50;39.98
18569;BME280;14780;48.316;-1.050;2023-04-01T20:06:52;98818.59;;;23.40;40.08
18569;BME280;14780;48.316;-1.050;2023-04-01T20:15:43;98821.31;;;23.60;39.66
18569;BME280;14780;48.316;-1.050;2023-04-01T20:18:54;98831.38;;;23.69;39.59
18569;BME280;14780;48.316;-1.050;2023-04-01T20:21:46;98829.72;;;23.68;39.50
18569;BME280;14780;48.316;-1.050;2023-04-01T20:24:52;98841.75;;;23.72;39.42
18569;BME280;14780;48.316;-1.050;2023-04-01T20:27:44;98849.94;;;23.72;39.43
18569;BME280;14780;48.316;-1.050;2023-04-01T20:33:44;98849.94;;;23.72;39.44
18569;BME280;14780;48.316;-1.050;2023-04-01T20:36:48;98850.47;;;23.74;39.38
18569;BME280;14780;48.316;-1.050;2023-04-01T20:51:28;98881.91;;;23.77;39.41
18569;BME280;14780;48.316;-1.050;2023-04-01T20:57:26;98886.25;;;23.73;39.53
18569;BME280;14780;48.316;-1.050;2023-04-01T21:00:47;98897.72;;;23.80;39.33
18569;BME280;14780;48.316;-1.050;2023-04-01T21:06:42;98904.56;;;23.82;39.39
18569;BME280;14780;48.316;-1.050;2023-04-01T21:25:47;98942.81;;;23.82;39.37
18569;BME280;14780;48.316;-1.050;2023-04-01T21:44:26;98954.88;;;23.86;39.21
18569;BME280;14780;48.316;-1.050;2023-04-01T21:50:45;98968.53;;;23.86;39.22
18569;BME280;14780;48.316;-1.050;2023-04-01T22:00:18;98978.31;;;23.82;39.28
18569;BME280;14780;48.316;-1.050;2023-04-01T22:03:23;98982.16;;;23.81;39.36
18569;BME280;14780;48.316;-1.050;2023-04-01T22:18:38;99005.13;;;23.85;39.14
18569;BME280;14780;48.316;-1.050;2023-04-01T22:25:10;98997.75;;;23.86;39.20
18569;BME280;14780;48.316;-1.050;2023-04-01T22:28:03;99014.69;;;23.83;39.21
18569;BME280;14780;48.316;-1.050;2023-04-01T22:30:59;99013.84;;;23.82;39.16
18569;BME280;14780;48.316;-1.050;2023-04-01T22:37:22;99023.97;;;23.87;39.06
18569;BME280;14780;48.316;-1.050;2023-04-01T22:43:12;99023.97;;;23.82;39.28
18569;BME280;14780;48.316;-1.050;2023-04-01T22:46:09;99027.25;;;23.84;39.18
18569;BME280;14780;48.316;-1.050;2023-04-01T22:49:07;99037.91;;;23.85;39.17
18569;BME280;14780;48.316;-1.050;2023-04-01T22:52:09;99047.19;;;23.84;39.17
18569;BME280;14780;48.316;-1.050;2023-04-01T22:55:20;99050.72;;;23.85;39.03
18569;BME280;14780;48.316;-1.050;2023-04-01T22:58:14;99053.19;;;23.81;39.16
18569;BME280;14780;48.316;-1.050;2023-04-01T23:01:06;99054.81;;;23.82;39.10
18569;BME280;14780;48.316;-1.050;2023-04-01T23:03:53;99060.28;;;23.82;39.26
18569;BME280;14780;48.316;-1.050;2023-04-01T23:06:49;99059.19;;;23.83;39.21
18569;BME280;14780;48.316;-1.050;2023-04-01T23:09:37;99070.13;;;23.83;39.18
18569;BME280;14780;48.316;-1.050;2023-04-01T23:12:23;99068.78;;;23.81;39.16
18569;BME280;14780;48.316;-1.050;2023-04-01T23:15:13;99061.13;;;23.83;39.06
18569;BME280;14780;48.316;-1.050;2023-04-01T23:18:09;99055.66;;;23.83;39.13
18569;BME280;14780;48.316;-1.050;2023-04-01T23:24:20;99075.09;;;23.86;38.97
18569;BME280;14780;48.316;-1.050;2023-04-01T23:27:12;99080.00;;;23.84;39.06
18569;BME280;14780;48.316;-1.050;2023-04-01T23:29:59;99078.31;;;23.83;39.11
18569;BME280;14780;48.316;-1.050;2023-04-01T23:32:43;99076.16;;;23.85;39.13
18569;BME280;14780;48.316;-1.050;2023-04-01T23:35:28;99078.31;;;23.83;38.99
18569;BME280;14780;48.316;-1.050;2023-04-01T23:38:12;99068.78;;;23.86;39.07
18569;BME280;14780;48.316;-1.050;2023-04-01T23:40:57;99090.41;;;23.87;38.92
18569;BME280;14780;48.316;-1.050;2023-04-01T23:43:43;99104.06;;;23.87;38.89
18569;BME280;14780;48.316;-1.050;2023-04-01T23:46:30;99103.47;;;23.85;38.93
18569;BME280;14780;48.316;-1.050;2023-04-01T23:49:35;99109.53;;;23.87;38.94
18569;BME280;14780;48.316;-1.050;2023-04-01T23:52:27;99095.84;;;23.87;38.89
18569;BME280;14780;48.316;-1.050;2023-04-01T23:55:25;99106.22;;;23.85;38.95
